createdAt,value
2018-04-13T00:00:15.676Z,100654.42
2018-04-13T00:00:38.600Z,100647.44
2018-04-13T00:01:00.655Z,100648.80
2018-04-13T00:01:22.745Z,100648.41
2018-04-13T00:01:51.154Z,100650.11
2018-04-13T00:02:13.215Z,100649.27
2018-04-13T00:02:35.262Z,100644.43
2018-04-13T00:02:57.379Z,100652.78
2018-04-13T00:03:20.194Z,100649.27
2018-04-13T00:03:43.031Z,100647.95
2018-04-13T00:04:05.851Z,100648.80
2018-04-13T00:04:29.421Z,100647.05
2018-04-13T00:04:52.252Z,100646.66
2018-04-13T00:05:15.079Z,100640.52
2018-04-13T00:05:37.136Z,100647.63
2018-04-13T00:05:59.191Z,100641.42
2018-04-13T00:06:21.260Z,100641.42
2018-04-13T00:06:43.454Z,100640.19
2018-04-13T00:07:05.522Z,100644.11
2018-04-13T00:07:27.679Z,100640.19
2018-04-13T00:07:49.748Z,100642.41
2018-04-13T00:08:11.816Z,100645.02
2018-04-13T00:08:39.348Z,100639.34
2018-04-13T00:09:01.417Z,100636.38
2018-04-13T00:09:23.475Z,100637.75
2018-04-13T00:09:45.541Z,100639.05
2018-04-13T00:10:08.375Z,100639.44
2018-04-13T00:10:31.248Z,100635.52
2018-04-13T00:10:53.298Z,100634.67
2018-04-13T00:11:15.424Z,100636.38
2018-04-13T00:11:37.475Z,100636.38
2018-04-13T00:12:05.244Z,100636.38
2018-04-13T00:12:27.312Z,100639.44
2018-04-13T00:12:49.440Z,100637.75
2018-04-13T00:13:12.254Z,100630.37
2018-04-13T00:13:34.298Z,100633.83
2018-04-13T00:13:57.096Z,100634.28
2018-04-13T00:14:19.165Z,100637.88
2018-04-13T00:14:41.224Z,100635.66
2018-04-13T00:15:03.281Z,100636.50
2018-04-13T00:15:26.105Z,100635.20
2018-04-13T00:15:48.164Z,100639.19
2018-04-13T00:16:10.227Z,100634.28
2018-04-13T00:16:32.291Z,100631.34
2018-04-13T00:16:54.346Z,100632.20
2018-04-13T00:17:16.416Z,100634.81
2018-04-13T00:17:39.251Z,100628.73
2018-04-13T00:18:02.126Z,100631.80
2018-04-13T00:18:24.179Z,100631.88
2018-04-13T00:18:46.226Z,100637.94
2018-04-13T00:19:08.281Z,100632.27
2018-04-13T00:19:30.334Z,100627.50
2018-04-13T00:19:52.386Z,100627.05
2018-04-13T00:20:14.437Z,100625.73
2018-04-13T00:20:41.981Z,100628.87
2018-04-13T00:21:09.454Z,100627.11
2018-04-13T00:21:31.522Z,100631.48
2018-04-13T00:21:53.692Z,100638.08
2018-04-13T00:22:15.756Z,100630.17
2018-04-13T00:22:37.832Z,100623.65
2018-04-13T00:22:59.921Z,100626.72
2018-04-13T00:23:21.978Z,100628.02
2018-04-13T00:23:44.791Z,100629.78
2018-04-13T00:24:06.843Z,100632.39
2018-04-13T00:24:28.912Z,100628.48
2018-04-13T00:24:50.973Z,100625.47
2018-04-13T00:25:13.797Z,100633.31
2018-04-13T00:25:36.621Z,100625.94
2018-04-13T00:25:58.666Z,100626.33
2018-04-13T00:26:20.725Z,100619.86
2018-04-13T00:26:42.786Z,100622.47
2018-04-13T00:27:11.236Z,100621.95
2018-04-13T00:27:33.292Z,100623.78
2018-04-13T00:27:55.975Z,100622.08
2018-04-13T00:28:18.044Z,100620.70
2018-04-13T00:28:40.094Z,100618.55
2018-04-13T00:29:02.166Z,100613.27
2018-04-13T00:29:24.262Z,100619.47
2018-04-13T00:29:46.316Z,100619.80
2018-04-13T00:30:08.371Z,100618.16
2018-04-13T00:30:30.428Z,100615.09
2018-04-13T00:30:53.238Z,100618.62
2018-04-13T00:31:15.299Z,100620.31
2018-04-13T00:31:37.357Z,100617.25
2018-04-13T00:31:59.418Z,100613.33
2018-04-13T00:32:22.227Z,100613.40
2018-04-13T00:32:51.306Z,100615.16
2018-04-13T00:33:14.145Z,100613.33
2018-04-13T00:33:36.190Z,100617.31
2018-04-13T00:33:58.245Z,100614.25
2018-04-13T00:34:20.317Z,100614.64
2018-04-13T00:34:43.149Z,100615.48
2018-04-13T00:35:05.981Z,100612.48
2018-04-13T00:35:34.344Z,100616.47
2018-04-13T00:35:57.159Z,100612.61
2018-04-13T00:36:19.221Z,100613.86
2018-04-13T00:36:41.273Z,100613.47
2018-04-13T00:37:03.331Z,100615.23
2018-04-13T00:37:31.675Z,100613.07
2018-04-13T00:37:53.750Z,100616.08
2018-04-13T00:38:21.334Z,100616.53
2018-04-13T00:38:43.400Z,100613.07
2018-04-13T00:39:05.459Z,100614.38
2018-04-13T00:39:27.597Z,100617.45
2018-04-13T00:39:49.647Z,100616.99
2018-04-13T00:40:11.883Z,100610.52
2018-04-13T00:40:33.944Z,100610.46
2018-04-13T00:40:56.014Z,100608.38
2018-04-13T00:41:18.082Z,100614.83
2018-04-13T00:41:40.152Z,100617.05
2018-04-13T00:42:02.221Z,100611.83
2018-04-13T00:42:24.286Z,100608.77
2018-04-13T00:42:46.356Z,100609.61
2018-04-13T00:43:08.435Z,100611.83
2018-04-13T00:43:30.485Z,100613.59
2018-04-13T00:43:52.569Z,100610.98
2018-04-13T00:44:14.622Z,100611.83
2018-04-13T00:44:36.688Z,100613.20
2018-04-13T00:44:58.718Z,100611.44
2018-04-13T00:45:20.781Z,100614.51
2018-04-13T00:45:42.837Z,100614.90
2018-04-13T00:46:04.915Z,100613.20
2018-04-13T00:46:26.977Z,100610.98
2018-04-13T00:46:54.540Z,100616.27
2018-04-13T00:47:16.587Z,100609.74
2018-04-13T00:47:38.638Z,100614.58
2018-04-13T00:48:01.659Z,100609.74
2018-04-13T00:48:23.740Z,100613.73
2018-04-13T00:48:45.821Z,100610.66
2018-04-13T00:49:07.888Z,100614.58
2018-04-13T00:49:29.958Z,100614.19
2018-04-13T00:49:52.025Z,100603.73
2018-04-13T00:50:14.083Z,100603.80
2018-04-13T00:50:36.904Z,100606.02
2018-04-13T00:50:59.723Z,100600.50
2018-04-13T00:51:21.787Z,100598.25
2018-04-13T00:51:43.826Z,100597.41
2018-04-13T00:52:11.515Z,100600.86
2018-04-13T00:52:33.568Z,100601.32
2018-04-13T00:53:01.186Z,100601.71
2018-04-13T00:53:24.032Z,100602.17
2018-04-13T00:53:46.868Z,100606.41
2018-04-13T00:54:09.675Z,100605.56
2018-04-13T00:54:32.274Z,100604.03
2018-04-13T00:54:54.976Z,100598.03
2018-04-13T00:55:17.323Z,100597.17
2018-04-13T00:55:45.180Z,100602.53
2018-04-13T00:56:07.500Z,100601.69
2018-04-13T00:56:30.748Z,100602.53
2018-04-13T00:56:53.147Z,100600.51
2018-04-13T00:57:15.699Z,100601.88
2018-04-13T00:57:38.727Z,100601.48
2018-04-13T00:58:06.572Z,100604.23
2018-04-13T00:58:28.788Z,100602.66
2018-04-13T00:58:50.888Z,100609.72
2018-04-13T00:59:13.784Z,100609.26
2018-04-13T00:59:41.501Z,100605.11
2018-04-13T01:00:03.608Z,100607.34
2018-04-13T01:00:25.962Z,100606.87
2018-04-13T01:00:48.141Z,100605.24
2018-04-13T01:01:10.977Z,100603.34
2018-04-13T01:01:39.689Z,100605.63
2018-04-13T01:02:02.230Z,100599.07
2018-04-13T01:02:24.684Z,100607.20
2018-04-13T01:02:47.183Z,100616.16
2018-04-13T01:03:10.008Z,100613.14
2018-04-13T01:03:32.434Z,100611.84
2018-04-13T01:03:54.952Z,100605.31
2018-04-13T01:04:17.286Z,100608.50
2018-04-13T01:04:40.175Z,100607.59
2018-04-13T01:05:03.569Z,100604.98
2018-04-13T01:05:25.894Z,100605.44
2018-04-13T01:05:49.082Z,100612.88
2018-04-13T01:06:11.563Z,100604.59
2018-04-13T01:06:34.198Z,100605.89
2018-04-13T01:06:56.733Z,100606.81
2018-04-13T01:07:19.149Z,100602.75
2018-04-13T01:07:42.660Z,100599.75
2018-04-13T01:08:05.787Z,100607.98
2018-04-13T01:08:28.451Z,100608.77
2018-04-13T01:08:50.981Z,100602.69
2018-04-13T01:09:13.411Z,100605.38
2018-04-13T01:09:36.162Z,100604.91
2018-04-13T01:10:05.042Z,100603.61
2018-04-13T01:10:27.362Z,100606.28
2018-04-13T01:10:49.788Z,100599.36
2018-04-13T01:11:12.304Z,100599.81
2018-04-13T01:11:34.363Z,100606.81
2018-04-13T01:11:56.434Z,100599.42
2018-04-13T01:12:18.497Z,100601.64
2018-04-13T01:12:40.601Z,100599.09
2018-04-13T01:13:02.723Z,100601.77
2018-04-13T01:13:24.816Z,100596.55
2018-04-13T01:13:52.513Z,100605.63
2018-04-13T01:14:14.562Z,100595.63
2018-04-13T01:14:36.604Z,100598.77
2018-04-13T01:14:58.664Z,100601.31
2018-04-13T01:15:20.790Z,100598.70
2018-04-13T01:15:42.849Z,100593.15
2018-04-13T01:16:04.912Z,100598.38
2018-04-13T01:16:27.025Z,100593.15
2018-04-13T01:16:49.110Z,100594.58
2018-04-13T01:17:11.226Z,100592.75
2018-04-13T01:17:33.283Z,100590.14
2018-04-13T01:17:55.562Z,100591.97
2018-04-13T01:18:23.176Z,100592.36
2018-04-13T01:18:46.023Z,100587.27
2018-04-13T01:19:08.089Z,100589.87
2018-04-13T01:19:30.275Z,100590.44
2018-04-13T01:19:52.329Z,100588.67
2018-04-13T01:20:14.390Z,100590.04
2018-04-13T01:20:42.723Z,100589.13
2018-04-13T01:21:04.777Z,100588.41
2018-04-13T01:21:26.835Z,100588.41
2018-04-13T01:21:48.907Z,100594.09
2018-04-13T01:22:11.951Z,100587.49
2018-04-13T01:22:34.005Z,100584.03
2018-04-13T01:22:56.077Z,100589.25
2018-04-13T01:23:18.896Z,100581.41
2018-04-13T01:23:40.964Z,100585.86
2018-04-13T01:24:03.016Z,100583.24
2018-04-13T01:24:25.083Z,100581.61
2018-04-13T01:24:47.142Z,100576.31
2018-04-13T01:25:09.190Z,100580.69
2018-04-13T01:25:32.016Z,100578.53
2018-04-13T01:25:54.069Z,100574.16
2018-04-13T01:26:16.196Z,100576.31
2018-04-13T01:26:38.253Z,100570.70
2018-04-13T01:27:01.067Z,100573.77
2018-04-13T01:27:23.124Z,100574.68
2018-04-13T01:27:45.179Z,100575.20
2018-04-13T01:28:07.251Z,100576.05
2018-04-13T01:28:29.540Z,100573.50
2018-04-13T01:28:51.599Z,100572.65
2018-04-13T01:29:13.647Z,100571.41
2018-04-13T01:29:35.760Z,100571.73
2018-04-13T01:29:57.821Z,100568.01
2018-04-13T01:30:19.875Z,100568.92
2018-04-13T01:30:42.700Z,100566.37
2018-04-13T01:31:04.752Z,100565.13
2018-04-13T01:31:26.799Z,100563.36
2018-04-13T01:31:48.849Z,100562.06
2018-04-13T01:32:16.387Z,100564.22
2018-04-13T01:32:38.447Z,100567.67
2018-04-13T01:33:06.057Z,100564.15
2018-04-13T01:33:28.128Z,100561.02
2018-04-13T01:33:50.266Z,100559.70
2018-04-13T01:34:12.322Z,100563.23
2018-04-13T01:34:35.106Z,100562.38
2018-04-13T01:34:57.151Z,100558.86
2018-04-13T01:35:19.218Z,100558.47
2018-04-13T01:35:41.274Z,100557.09
2018-04-13T01:36:03.336Z,100561.93
2018-04-13T01:36:26.164Z,100559.84
2018-04-13T01:36:48.976Z,100551.02
2018-04-13T01:37:11.023Z,100562.33
2018-04-13T01:37:33.842Z,100555.33
2018-04-13T01:37:55.911Z,100556.24
2018-04-13T01:38:17.970Z,100547.09
2018-04-13T01:38:40.050Z,100557.61
2018-04-13T01:39:02.111Z,100552.33
2018-04-13T01:39:24.163Z,100551.47
2018-04-13T01:39:46.227Z,100555.85
2018-04-13T01:40:08.341Z,100557.16
2018-04-13T01:40:30.393Z,100552.78
2018-04-13T01:40:53.309Z,100553.23
2018-04-13T01:41:15.378Z,100552.33
2018-04-13T01:41:37.423Z,100543.56
2018-04-13T01:41:59.482Z,100551.02
2018-04-13T01:42:22.303Z,100551.53
2018-04-13T01:42:45.112Z,100549.31
2018-04-13T01:43:07.192Z,100553.70
2018-04-13T01:43:29.249Z,100551.93
2018-04-13T01:43:51.333Z,100558.98
2018-04-13T01:44:13.565Z,100550.69
2018-04-13T01:44:35.624Z,100547.62
2018-04-13T01:44:57.680Z,100548.07
2018-04-13T01:45:19.742Z,100547.55
2018-04-13T01:45:41.791Z,100550.23
2018-04-13T01:46:04.650Z,100548.41
2018-04-13T01:46:26.704Z,100554.48
2018-04-13T01:46:48.760Z,100553.23
2018-04-13T01:47:11.599Z,100550.62
2018-04-13T01:47:34.423Z,100549.77
2018-04-13T01:47:56.474Z,100545.00
2018-04-13T01:48:24.241Z,100553.36
2018-04-13T01:48:46.377Z,100553.30
2018-04-13T01:49:08.429Z,100552.05
2018-04-13T01:49:31.261Z,100553.70
2018-04-13T01:49:53.314Z,100551.47
2018-04-13T01:50:15.372Z,100549.31
2018-04-13T01:50:37.421Z,100555.39
2018-04-13T01:51:00.243Z,100549.37
2018-04-13T01:51:22.295Z,100556.24
2018-04-13T01:51:44.342Z,100561.53
2018-04-13T01:52:06.400Z,100560.23
2018-04-13T01:52:28.494Z,100558.92
2018-04-13T01:52:50.515Z,100562.45
2018-04-13T01:53:12.562Z,100562.45
2018-04-13T01:53:35.374Z,100559.44
2018-04-13T01:53:57.461Z,100557.61
2018-04-13T01:54:19.529Z,100561.53
2018-04-13T01:54:47.044Z,100561.53
2018-04-13T01:55:14.679Z,100559.77
2018-04-13T01:55:36.759Z,100558.01
2018-04-13T01:55:58.816Z,100565.45
2018-04-13T01:56:20.887Z,100561.93
2018-04-13T01:56:43.710Z,100561.53
2018-04-13T01:57:06.536Z,100568.07
2018-04-13T01:57:28.594Z,100561.27
2018-04-13T01:57:50.642Z,100567.34
2018-04-13T01:58:12.687Z,100563.03
2018-04-13T01:58:34.745Z,100563.88
2018-04-13T01:58:56.811Z,100562.58
2018-04-13T01:59:18.879Z,100562.12
2018-04-13T01:59:40.926Z,100559.96
2018-04-13T02:00:02.978Z,100557.74
2018-04-13T02:00:25.803Z,100559.05
2018-04-13T02:00:47.860Z,100563.88
2018-04-13T02:01:09.917Z,100558.59
2018-04-13T02:01:31.990Z,100564.28
2018-04-13T02:01:59.580Z,100561.66
2018-04-13T02:02:21.627Z,100566.11
2018-04-13T02:02:44.452Z,100569.17
2018-04-13T02:03:06.512Z,100567.80
2018-04-13T02:03:28.565Z,100566.56
2018-04-13T02:03:50.620Z,100574.34
2018-04-13T02:04:13.466Z,100575.19
2018-04-13T02:04:36.291Z,100572.58
2018-04-13T02:04:59.116Z,100566.89
2018-04-13T02:05:21.167Z,100568.13
2018-04-13T02:05:43.208Z,100567.67
2018-04-13T02:06:05.266Z,100568.59
2018-04-13T02:06:27.318Z,100560.30
2018-04-13T02:06:49.390Z,100562.52
2018-04-13T02:07:11.484Z,100563.82
2018-04-13T02:07:39.113Z,100554.67
2018-04-13T02:08:01.165Z,100549.84
2018-04-13T02:08:23.228Z,100553.82
2018-04-13T02:08:45.283Z,100552.52
2018-04-13T02:09:07.348Z,100549.96
2018-04-13T02:09:30.167Z,100542.97
2018-04-13T02:09:52.219Z,100546.05
2018-04-13T02:10:14.279Z,100544.73
2018-04-13T02:10:36.322Z,100539.05
2018-04-13T02:10:58.379Z,100542.97
2018-04-13T02:11:20.439Z,100537.28
2018-04-13T02:11:42.498Z,100542.13
2018-04-13T02:12:04.556Z,100530.81
2018-04-13T02:12:26.611Z,100532.52
2018-04-13T02:12:48.678Z,100536.05
2018-04-13T02:13:10.737Z,100536.50
2018-04-13T02:13:32.782Z,100531.73
2018-04-13T02:13:54.838Z,100529.91
2018-04-13T02:14:16.912Z,100524.28
2018-04-13T02:14:39.725Z,100530.36
2018-04-13T02:15:01.786Z,100523.37
2018-04-13T02:15:23.850Z,100530.75
2018-04-13T02:15:46.663Z,100525.52
2018-04-13T02:16:08.712Z,100529.45
2018-04-13T02:16:31.498Z,100523.82
2018-04-13T02:16:53.552Z,100519.05
2018-04-13T02:17:15.601Z,100520.30
2018-04-13T02:17:38.415Z,100527.22
2018-04-13T02:18:00.472Z,100525.06
2018-04-13T02:18:22.535Z,100526.38
2018-04-13T02:18:44.656Z,100527.29
2018-04-13T02:19:06.706Z,100524.67
2018-04-13T02:19:29.539Z,100528.66
2018-04-13T02:19:52.367Z,100529.97
2018-04-13T02:20:15.184Z,100528.66
2018-04-13T02:20:37.251Z,100530.88
2018-04-13T02:20:59.312Z,100527.75
2018-04-13T02:21:21.372Z,100532.13
2018-04-13T02:21:43.580Z,100528.59
2018-04-13T02:22:06.395Z,100529.05
2018-04-13T02:22:29.956Z,100529.45
2018-04-13T02:22:52.788Z,100518.98
2018-04-13T02:23:15.616Z,100522.52
2018-04-13T02:23:37.783Z,100516.83
2018-04-13T02:23:59.837Z,100515.13
2018-04-13T02:24:27.409Z,100514.28
2018-04-13T02:24:50.229Z,100512.52
2018-04-13T02:25:12.275Z,100502.91
2018-04-13T02:25:35.095Z,100508.53
2018-04-13T02:25:57.147Z,100502.06
2018-04-13T02:26:19.204Z,100501.20
2018-04-13T02:26:41.264Z,100499.05
2018-04-13T02:27:04.076Z,100494.22
2018-04-13T02:27:26.135Z,100496.44
2018-04-13T02:27:48.261Z,100497.75
2018-04-13T02:28:10.318Z,100499.38
2018-04-13T02:28:32.368Z,100494.16
2018-04-13T02:28:55.192Z,100498.53
2018-04-13T02:29:18.043Z,100496.77
2018-04-13T02:29:40.113Z,100498.47
2018-04-13T02:30:02.170Z,100502.39
2018-04-13T02:30:24.997Z,100500.23
2018-04-13T02:30:47.820Z,100499.78
2018-04-13T02:31:09.871Z,100498.53
2018-04-13T02:31:37.615Z,100498.08
2018-04-13T02:31:59.680Z,100497.29
2018-04-13T02:32:21.733Z,100501.77
2018-04-13T02:32:44.547Z,100498.69
2018-04-13T02:33:06.603Z,100501.31
2018-04-13T02:33:28.671Z,100492.06
2018-04-13T02:33:56.331Z,100493.47
2018-04-13T02:34:23.944Z,100491.31
2018-04-13T02:34:45.907Z,100494.28
2018-04-13T02:35:07.983Z,100488.59
2018-04-13T02:35:30.058Z,100493.47
2018-04-13T02:35:52.881Z,100487.75
2018-04-13T02:36:15.716Z,100490.36
2018-04-13T02:36:38.545Z,100488.98
2018-04-13T02:37:06.184Z,100494.22
2018-04-13T02:37:33.756Z,100494.22
2018-04-13T02:37:56.010Z,100492.45
2018-04-13T02:38:18.062Z,100505.53
2018-04-13T02:38:45.748Z,100509.38
2018-04-13T02:39:08.560Z,100504.67
2018-04-13T02:39:30.628Z,100502.06
2018-04-13T02:39:52.706Z,100497.69
2018-04-13T02:40:15.533Z,100495.92
2018-04-13T02:40:37.597Z,100493.31
2018-04-13T02:40:59.653Z,100488.93
2018-04-13T02:41:21.835Z,100494.55
2018-04-13T02:41:43.888Z,100495.07
2018-04-13T02:42:05.940Z,100497.63
2018-04-13T02:42:28.758Z,100498.53
2018-04-13T02:42:51.595Z,100506.31
2018-04-13T02:43:14.416Z,100506.83
2018-04-13T02:43:42.216Z,100502.85
2018-04-13T02:44:04.283Z,100500.17
2018-04-13T02:44:26.359Z,100498.47
2018-04-13T02:44:48.408Z,100502.00
2018-04-13T02:45:10.517Z,100501.15
2018-04-13T02:45:32.568Z,100502.85
2018-04-13T02:45:54.631Z,100499.26
2018-04-13T02:46:16.684Z,100503.30
2018-04-13T02:46:38.731Z,100504.55
2018-04-13T02:47:07.081Z,100509.05
2018-04-13T02:47:29.914Z,100505.13
2018-04-13T02:47:57.648Z,100505.13
2018-04-13T02:48:19.704Z,100505.98
2018-04-13T02:48:42.536Z,100503.37
2018-04-13T02:49:05.359Z,100503.37
2018-04-13T02:49:27.440Z,100515.20
2018-04-13T02:49:49.489Z,100508.66
2018-04-13T02:50:11.547Z,100515.59
2018-04-13T02:50:33.673Z,100510.81
2018-04-13T02:50:55.739Z,100520.81
2018-04-13T02:51:17.779Z,100518.59
2018-04-13T02:51:40.594Z,100517.69
2018-04-13T02:52:02.648Z,100518.59
2018-04-13T02:52:24.700Z,100517.75
2018-04-13T02:52:46.765Z,100515.13
2018-04-13T02:53:09.597Z,100518.59
2018-04-13T02:53:32.420Z,100514.67
2018-04-13T02:53:55.247Z,100517.28
2018-04-13T02:54:17.298Z,100512.52
2018-04-13T02:54:39.405Z,100511.21
2018-04-13T02:55:02.228Z,100515.98
2018-04-13T02:55:25.057Z,100516.38
2018-04-13T02:55:47.118Z,100515.59
2018-04-13T02:56:09.184Z,100516.89
2018-04-13T02:56:31.244Z,100515.52
2018-04-13T02:56:53.298Z,100512.91
2018-04-13T02:57:15.356Z,100514.22
2018-04-13T02:57:38.178Z,100513.37
2018-04-13T02:58:00.263Z,100516.89
2018-04-13T02:58:22.307Z,100516.44
2018-04-13T02:58:44.365Z,100512.13
2018-04-13T02:59:06.415Z,100512.06
2018-04-13T02:59:28.466Z,100512.52
2018-04-13T02:59:50.537Z,100509.91
2018-04-13T03:00:12.582Z,100506.83
2018-04-13T03:00:34.631Z,100507.69
2018-04-13T03:00:57.460Z,100508.98
2018-04-13T03:01:20.275Z,100504.61
2018-04-13T03:01:47.902Z,100502.39
2018-04-13T03:02:10.073Z,100502.39
2018-04-13T03:02:32.901Z,100508.14
2018-04-13T03:02:55.735Z,100504.22
2018-04-13T03:03:18.557Z,100511.21
2018-04-13T03:03:40.602Z,100511.21
2018-04-13T03:04:08.214Z,100510.75
2018-04-13T03:04:30.286Z,100512.45
2018-04-13T03:04:52.375Z,100514.28
2018-04-13T03:05:20.694Z,100515.20
2018-04-13T03:05:42.748Z,100518.75
2018-04-13T03:06:05.567Z,100522.67
2018-04-13T03:06:27.622Z,100522.22
2018-04-13T03:06:49.685Z,100520.42
2018-04-13T03:07:11.748Z,100527.91
2018-04-13T03:07:33.899Z,100526.59
2018-04-13T03:07:56.689Z,100527.91
2018-04-13T03:08:19.735Z,100524.83
2018-04-13T03:08:42.543Z,100532.19
2018-04-13T03:09:04.596Z,100531.73
2018-04-13T03:09:26.651Z,100533.98
2018-04-13T03:09:48.706Z,100534.44
2018-04-13T03:10:10.783Z,100531.73
2018-04-13T03:10:32.926Z,100533.03
2018-04-13T03:11:00.656Z,100537.34
2018-04-13T03:11:22.723Z,100540.52
2018-04-13T03:11:45.590Z,100535.30
2018-04-13T03:12:07.655Z,100537.91
2018-04-13T03:12:29.717Z,100530.81
2018-04-13T03:12:57.302Z,100533.88
2018-04-13T03:13:19.354Z,100535.35
2018-04-13T03:13:42.178Z,100541.43
2018-04-13T03:14:04.241Z,100534.89
2018-04-13T03:14:26.290Z,100537.12
2018-04-13T03:14:48.382Z,100536.59
2018-04-13T03:15:10.450Z,100531.83
2018-04-13T03:15:32.550Z,100542.34
2018-04-13T03:15:54.602Z,100539.73
2018-04-13T03:16:17.432Z,100541.34
2018-04-13T03:16:40.259Z,100537.05
2018-04-13T03:17:03.078Z,100542.19
2018-04-13T03:17:30.619Z,100534.89
2018-04-13T03:17:52.652Z,100534.89
2018-04-13T03:18:15.692Z,100537.97
2018-04-13T03:18:37.727Z,100544.89
2018-04-13T03:19:06.235Z,100544.44
2018-04-13T03:19:28.282Z,100546.11
2018-04-13T03:19:50.341Z,100544.80
2018-04-13T03:20:12.395Z,100546.11
2018-04-13T03:20:34.478Z,100547.52
2018-04-13T03:20:56.531Z,100547.88
2018-04-13T03:21:18.583Z,100547.05
2018-04-13T03:21:40.631Z,100550.64
2018-04-13T03:22:02.691Z,100549.34
2018-04-13T03:22:24.749Z,100549.34
2018-04-13T03:22:47.567Z,100548.48
2018-04-13T03:23:15.095Z,100549.34
2018-04-13T03:23:37.154Z,100549.80
2018-04-13T03:23:59.213Z,100550.70
2018-04-13T03:24:21.264Z,100552.41
2018-04-13T03:24:44.098Z,100548.48
2018-04-13T03:25:06.921Z,100548.95
2018-04-13T03:25:28.976Z,100553.72
2018-04-13T03:25:51.121Z,100550.25
2018-04-13T03:26:13.175Z,100560.31
2018-04-13T03:26:40.841Z,100559.07
2018-04-13T03:27:03.660Z,100557.77
2018-04-13T03:27:25.720Z,100558.61
2018-04-13T03:27:47.775Z,100557.37
2018-04-13T03:28:09.829Z,100558.16
2018-04-13T03:28:38.191Z,100557.31
2018-04-13T03:29:06.534Z,100562.99
2018-04-13T03:29:28.593Z,100560.84
2018-04-13T03:29:56.206Z,100559.07
2018-04-13T03:30:18.423Z,100554.69
2018-04-13T03:30:40.474Z,100562.08
2018-04-13T03:31:02.570Z,100558.22
2018-04-13T03:31:25.392Z,100556.13
2018-04-13T03:31:47.461Z,100556.13
2018-04-13T03:32:09.507Z,100559.13
2018-04-13T03:32:31.566Z,100557.83
2018-04-13T03:32:54.384Z,100561.81
2018-04-13T03:33:16.438Z,100565.28
2018-04-13T03:33:38.500Z,100556.91
2018-04-13T03:34:00.544Z,100560.90
2018-04-13T03:34:22.592Z,100563.52
2018-04-13T03:34:44.644Z,100562.59
2018-04-13T03:35:06.701Z,100561.29
2018-04-13T03:35:29.529Z,100557.31
2018-04-13T03:35:51.575Z,100560.77
2018-04-13T03:36:13.661Z,100561.29
2018-04-13T03:36:35.749Z,100563.91
2018-04-13T03:36:57.816Z,100554.75
2018-04-13T03:37:20.633Z,100557.77
2018-04-13T03:37:48.139Z,100560.05
2018-04-13T03:38:10.263Z,100562.20
2018-04-13T03:38:32.413Z,100559.53
2018-04-13T03:38:59.957Z,100560.38
2018-04-13T03:39:22.012Z,100561.63
2018-04-13T03:39:44.079Z,100560.84
2018-04-13T03:40:06.138Z,100560.44
2018-04-13T03:40:28.202Z,100562.66
2018-04-13T03:40:50.318Z,100562.20
2018-04-13T03:41:12.370Z,100559.26
2018-04-13T03:41:34.433Z,100558.80
2018-04-13T03:41:56.479Z,100566.64
2018-04-13T03:42:18.531Z,100568.02
2018-04-13T03:42:41.368Z,100566.19
2018-04-13T03:43:04.187Z,100554.42
2018-04-13T03:43:27.016Z,100557.50
2018-04-13T03:43:49.072Z,100557.50
2018-04-13T03:44:11.122Z,100557.50
2018-04-13T03:44:33.275Z,100558.34
2018-04-13T03:44:55.328Z,100551.35
2018-04-13T03:45:17.556Z,100549.20
2018-04-13T03:45:39.613Z,100559.66
2018-04-13T03:46:01.683Z,100551.35
2018-04-13T03:46:29.296Z,100560.11
2018-04-13T03:46:51.354Z,100558.34
2018-04-13T03:47:13.424Z,100555.80
2018-04-13T03:47:35.469Z,100553.12
2018-04-13T03:47:58.344Z,100553.64
2018-04-13T03:48:20.503Z,100557.17
2018-04-13T03:48:42.557Z,100557.10
2018-04-13T03:49:04.627Z,100545.73
2018-04-13T03:49:32.302Z,100558.02
2018-04-13T03:50:00.653Z,100553.19
2018-04-13T03:50:22.706Z,100547.44
2018-04-13T03:50:44.761Z,100554.03
2018-04-13T03:51:06.817Z,100551.35
2018-04-13T03:51:29.680Z,100554.42
2018-04-13T03:51:51.735Z,100556.19
2018-04-13T03:52:13.801Z,100552.20
2018-04-13T03:52:35.859Z,100554.95
2018-04-13T03:52:57.897Z,100553.58
2018-04-13T03:53:19.952Z,100550.56
2018-04-13T03:53:47.602Z,100551.94
2018-04-13T03:54:09.655Z,100546.70
2018-04-13T03:54:31.740Z,100544.09
2018-04-13T03:54:54.519Z,100550.23
2018-04-13T03:55:16.586Z,100549.45
2018-04-13T03:55:44.207Z,100553.77
2018-04-13T03:56:06.260Z,100550.76
2018-04-13T03:56:28.310Z,100548.53
2018-04-13T03:56:50.391Z,100548.53
2018-04-13T03:57:12.426Z,100555.01
2018-04-13T03:57:34.475Z,100555.47
2018-04-13T03:57:56.535Z,100548.99
2018-04-13T03:58:18.585Z,100553.31
2018-04-13T03:58:40.643Z,100554.16
2018-04-13T03:59:08.181Z,100550.17
2018-04-13T03:59:30.239Z,100553.38
2018-04-13T03:59:52.306Z,100551.48
2018-04-13T04:00:14.355Z,100546.25
2018-04-13T04:00:37.204Z,100550.69
2018-04-13T04:01:04.770Z,100556.77
2018-04-13T04:01:26.831Z,100555.47
2018-04-13T04:01:48.900Z,100553.77
2018-04-13T04:02:16.466Z,100553.31
2018-04-13T04:02:38.533Z,100556.84
2018-04-13T04:03:01.365Z,100554.22
2018-04-13T04:03:24.179Z,100550.76
2018-04-13T04:03:46.222Z,100556.44
2018-04-13T04:04:09.039Z,100545.53
2018-04-13T04:04:31.088Z,100551.28
2018-04-13T04:04:53.139Z,100553.77
2018-04-13T04:05:15.183Z,100550.82
2018-04-13T04:05:37.299Z,100550.30
2018-04-13T04:05:59.365Z,100548.14
2018-04-13T04:06:26.976Z,100549.45
2018-04-13T04:06:49.032Z,100550.42
2018-04-13T04:07:11.165Z,100549.97
2018-04-13T04:07:33.251Z,100554.74
2018-04-13T04:07:56.073Z,100555.59
2018-04-13T04:08:18.908Z,100558.66
2018-04-13T04:08:41.740Z,100556.44
2018-04-13T04:09:04.566Z,100555.13
2018-04-13T04:09:26.619Z,100559.06
2018-04-13T04:09:48.663Z,100561.67
2018-04-13T04:10:10.724Z,100556.96
2018-04-13T04:10:32.774Z,100559.91
2018-04-13T04:10:54.869Z,100559.97
2018-04-13T04:11:16.898Z,100556.05
2018-04-13T04:11:38.965Z,100554.74
2018-04-13T04:12:01.059Z,100550.76
2018-04-13T04:12:28.772Z,100559.97
2018-04-13T04:12:51.768Z,100556.91
2018-04-13T04:13:13.814Z,100554.22
2018-04-13T04:13:35.897Z,100557.30
2018-04-13T04:13:57.984Z,100556.84
2018-04-13T04:14:20.046Z,100559.91
2018-04-13T04:14:42.102Z,100560.82
2018-04-13T04:15:04.206Z,100560.82
2018-04-13T04:15:26.266Z,100559.06
2018-04-13T04:15:48.319Z,100557.30
2018-04-13T04:16:16.102Z,100559.91
2018-04-13T04:16:38.918Z,100566.51
2018-04-13T04:17:00.973Z,100561.73
2018-04-13T04:17:23.024Z,100563.89
2018-04-13T04:17:45.078Z,100564.34
2018-04-13T04:18:07.165Z,100558.66
2018-04-13T04:18:29.215Z,100562.19
2018-04-13T04:18:57.574Z,100564.41
2018-04-13T04:19:19.824Z,100562.19
2018-04-13T04:19:41.878Z,100571.41
2018-04-13T04:20:03.932Z,100565.72